Buckner, Kentucky
Current Conditions -  °F | °C
As of 10:53 PM on Monday 22 Dec 2014 (Local Time) from KLOU Reporting Station
Light Rain Light Rain  
Wind Chill: 11°   Ceiling: 2100
Heat Index: 11°   Visibility: 10mi
Dew Point:   Wind: 5mph
Humidity: 89%   Direction: 140°SE
Pressure: 29.71"   Gusts: NA
Location:  38.38°N, 85.44°W
Report Text: KLOU 230353Z 14004KT 10SM -RA BKN021 BKN060 OVC085 11/09 A2971 RMK AO2 SLP059 P0008 T01060089
Loading
Personal Weather Stations






























Interactive Weather Map New forecast layout! Learn more

10-Day Weather Forecast

Advertisements
Track Severe Weather on mobile